createdAt,value
2019-01-30T00:01:05.366Z,37.17
2019-01-30T00:04:08.788Z,35.07
2019-01-30T00:07:11.977Z,40.03
2019-01-30T00:10:15.282Z,44.47
2019-01-30T00:13:18.366Z,42.13
2019-01-30T00:16:21.666Z,49.27
2019-01-30T00:19:24.871Z,52.47
2019-01-30T00:22:27.962Z,57.77
2019-01-30T00:25:31.156Z,65.00
2019-01-30T00:28:36.142Z,48.53
2019-01-30T00:31:39.178Z,44.77
2019-01-30T00:34:42.411Z,47.23
2019-01-30T00:37:45.671Z,45.60
2019-01-30T00:40:48.942Z,52.60
2019-01-30T00:43:52.061Z,45.73
2019-01-30T00:46:55.190Z,53.47
2019-01-30T00:49:58.346Z,50.20
2019-01-30T00:53:13.883Z,56.47
2019-01-30T00:56:17.130Z,48.97
2019-01-30T00:59:20.262Z,47.47
2019-01-30T01:02:23.518Z,46.67
2019-01-30T01:05:27.070Z,43.70
2019-01-30T01:08:30.114Z,41.93
2019-01-30T01:11:33.250Z,39.50
2019-01-30T01:14:36.401Z,31.20
2019-01-30T01:17:39.734Z,34.37
2019-01-30T01:20:42.894Z,36.13
2019-01-30T01:23:46.133Z,36.77
2019-01-30T01:26:49.288Z,25.93
2019-01-30T01:29:52.526Z,34.67
2019-01-30T01:32:55.777Z,36.77
2019-01-30T01:35:59.010Z,23.53
2019-01-30T01:39:02.678Z,26.97
2019-01-30T01:42:06.014Z,31.53
2019-01-30T01:45:14.394Z,36.77
2019-01-30T01:48:18.049Z,41.80
2019-01-30T01:51:21.095Z,49.47
2019-01-30T01:54:24.341Z,34.23
2019-01-30T01:57:27.482Z,38.73
2019-01-30T02:00:35.565Z,26.70
2019-01-30T02:03:35.922Z,34.10
2019-01-30T02:06:39.066Z,29.50
2019-01-30T02:09:42.314Z,28.87
2019-01-30T02:12:45.549Z,33.57
2019-01-30T02:15:48.599Z,33.77
2019-01-30T02:18:51.730Z,31.17
2019-01-30T02:21:54.786Z,29.77
2019-01-30T02:24:58.117Z,32.47
2019-01-30T02:28:01.179Z,36.07
2019-01-30T02:31:04.522Z,27.30
2019-01-30T02:34:07.770Z,32.60
2019-01-30T02:37:11.030Z,36.27
2019-01-30T02:40:15.903Z,36.20
2019-01-30T02:43:19.130Z,25.07
2019-01-30T02:46:22.199Z,34.63
2019-01-30T02:49:25.434Z,34.87
2019-01-30T02:52:28.476Z,31.60
2019-01-30T02:55:31.722Z,32.33
2019-01-30T02:58:34.762Z,31.50
2019-01-30T03:01:52.732Z,32.57
2019-01-30T03:04:55.800Z,33.27
2019-01-30T03:07:59.042Z,29.57
2019-01-30T03:11:02.194Z,33.13
2019-01-30T03:14:05.322Z,34.13
2019-01-30T03:17:08.375Z,26.70
2019-01-30T03:20:15.245Z,37.83
2019-01-30T03:23:18.361Z,29.20
2019-01-30T03:26:21.596Z,34.17
2019-01-30T03:29:24.634Z,25.70
2019-01-30T03:32:27.871Z,31.53
2019-01-30T03:35:31.022Z,28.10
2019-01-30T03:38:34.160Z,28.87
2019-01-30T03:41:37.415Z,28.57
2019-01-30T03:44:40.717Z,43.53
2019-01-30T03:47:43.806Z,60.37
2019-01-30T03:50:46.902Z,68.30
2019-01-30T03:53:49.990Z,70.37
2019-01-30T03:56:53.090Z,98.60
2019-01-30T03:59:56.180Z,126.13
2019-01-30T04:02:59.367Z,127.40
2019-01-30T04:06:02.463Z,140.77
2019-01-30T04:09:06.998Z,162.40
2019-01-30T04:12:10.082Z,155.40
2019-01-30T04:15:13.386Z,149.10
2019-01-30T04:18:16.674Z,118.83
2019-01-30T04:21:19.876Z,159.97
2019-01-30T04:24:22.962Z,138.80
2019-01-30T04:27:26.162Z,115.57
2019-01-30T04:30:29.350Z,143.27
2019-01-30T04:33:32.553Z,106.03
2019-01-30T04:36:35.747Z,120.67
2019-01-30T04:39:38.948Z,88.10
2019-01-30T04:42:42.135Z,80.63
2019-01-30T04:45:45.329Z,101.30
2019-01-30T04:48:49.551Z,96.60
2019-01-30T04:51:52.742Z,92.97
2019-01-30T04:54:55.838Z,105.03
2019-01-30T04:57:59.133Z,109.07
2019-01-30T05:01:02.330Z,94.60
2019-01-30T05:04:05.541Z,119.13
2019-01-30T05:07:08.723Z,122.63
2019-01-30T05:10:12.059Z,113.67
2019-01-30T05:13:15.210Z,116.77
2019-01-30T05:16:18.868Z,107.67
2019-01-30T05:19:21.910Z,107.07
2019-01-30T05:22:26.166Z,101.57
2019-01-30T05:25:29.335Z,103.53
2019-01-30T05:28:32.484Z,104.80
2019-01-30T05:31:35.815Z,119.93
2019-01-30T05:34:39.366Z,137.00
2019-01-30T05:37:42.410Z,129.07
2019-01-30T05:40:45.754Z,141.17
2019-01-30T05:43:48.911Z,134.73
2019-01-30T05:46:52.035Z,145.43
2019-01-30T05:49:55.190Z,145.53
2019-01-30T05:52:58.439Z,137.83
2019-01-30T05:56:01.687Z,158.10
2019-01-30T05:59:04.898Z,153.73
2019-01-30T06:02:12.048Z,156.03
2019-01-30T06:05:13.251Z,154.87
2019-01-30T06:08:16.311Z,132.53
2019-01-30T06:11:19.964Z,135.50
2019-01-30T06:14:23.106Z,121.23
2019-01-30T06:17:26.313Z,105.47
2019-01-30T06:20:29.598Z,98.80
2019-01-30T06:23:32.838Z,113.73
2019-01-30T06:26:36.098Z,98.23
2019-01-30T06:29:39.285Z,84.30
2019-01-30T06:32:42.178Z,82.50
2019-01-30T06:35:45.306Z,88.20
2019-01-30T06:38:48.364Z,88.40
2019-01-30T06:41:51.273Z,70.90
2019-01-30T06:44:54.540Z,83.93
2019-01-30T06:47:57.664Z,86.53
2019-01-30T06:51:00.819Z,82.03
2019-01-30T06:54:04.271Z,79.67
2019-01-30T06:57:07.408Z,88.67
2019-01-30T07:00:15.875Z,101.27
2019-01-30T07:03:18.918Z,96.07
2019-01-30T07:06:22.085Z,91.90
2019-01-30T07:09:25.326Z,102.77
2019-01-30T07:12:28.863Z,95.33
2019-01-30T07:15:32.006Z,98.30
2019-01-30T07:18:35.179Z,108.17
2019-01-30T07:21:38.506Z,99.87
2019-01-30T07:24:41.630Z,113.23
2019-01-30T07:27:45.024Z,101.77
2019-01-30T07:30:48.194Z,88.10
2019-01-30T07:33:51.282Z,74.53
2019-01-30T07:36:54.375Z,76.17
2019-01-30T07:39:57.322Z,75.60
2019-01-30T07:43:00.560Z,75.87
2019-01-30T07:46:03.658Z,67.97
2019-01-30T07:49:08.386Z,68.50
2019-01-30T07:52:11.525Z,58.80
2019-01-30T07:55:15.562Z,57.90
2019-01-30T07:58:18.787Z,59.90
2019-01-30T08:01:22.266Z,57.77
2019-01-30T08:04:25.400Z,62.17
2019-01-30T08:07:28.788Z,57.20
2019-01-30T08:10:31.974Z,57.63
2019-01-30T08:13:35.183Z,50.63
2019-01-30T08:16:38.478Z,55.60
2019-01-30T08:19:42.797Z,57.27
2019-01-30T08:22:45.891Z,62.73
2019-01-30T08:25:49.445Z,63.63
2019-01-30T08:28:53.328Z,54.10
2019-01-30T08:31:57.100Z,52.80
2019-01-30T08:35:01.802Z,49.67
2019-01-30T08:38:05.493Z,49.00
2019-01-30T08:41:08.694Z,49.23
2019-01-30T08:44:12.086Z,43.37
2019-01-30T08:47:15.247Z,49.30
2019-01-30T08:50:20.334Z,41.90
2019-01-30T08:53:23.680Z,45.33
2019-01-30T08:56:28.156Z,41.13
2019-01-30T08:59:31.607Z,46.00
2019-01-30T09:02:34.923Z,48.47
2019-01-30T09:05:38.202Z,50.53
2019-01-30T09:08:41.347Z,45.03
2019-01-30T09:11:44.382Z,44.60
2019-01-30T09:14:47.817Z,38.33
2019-01-30T09:17:51.087Z,38.83
2019-01-30T09:20:54.291Z,38.33
2019-01-30T09:23:57.371Z,35.77
2019-01-30T09:27:00.602Z,37.63
2019-01-30T09:30:05.971Z,39.67
2019-01-30T09:33:10.517Z,38.07
2019-01-30T09:36:13.879Z,40.33
2019-01-30T09:39:17.175Z,27.60
2019-01-30T09:42:20.431Z,36.03
2019-01-30T09:45:23.773Z,27.33
2019-01-30T09:48:26.836Z,34.73
2019-01-30T09:51:30.149Z,30.37
2019-01-30T09:54:33.202Z,28.30
2019-01-30T09:57:37.428Z,30.20
2019-01-30T10:00:40.623Z,27.13
2019-01-30T10:03:44.179Z,31.77
2019-01-30T10:06:47.417Z,30.70
2019-01-30T10:09:52.685Z,34.13
2019-01-30T10:12:55.861Z,29.17
2019-01-30T10:15:59.446Z,32.00
2019-01-30T10:19:02.758Z,26.00
2019-01-30T10:22:06.705Z,23.60
2019-01-30T10:25:10.074Z,22.57
2019-01-30T10:28:16.598Z,28.20
2019-01-30T10:31:18.308Z,24.10
2019-01-30T10:34:21.534Z,21.90
2019-01-30T10:37:25.594Z,19.53
2019-01-30T10:40:28.850Z,16.73
2019-01-30T10:43:32.314Z,19.77
2019-01-30T10:46:35.550Z,17.60
2019-01-30T10:49:38.706Z,24.87
2019-01-30T10:52:41.906Z,19.90
2019-01-30T10:55:45.106Z,21.43
2019-01-30T10:58:48.307Z,17.93
2019-01-30T11:01:51.486Z,21.33
2019-01-30T11:04:54.787Z,23.03
2019-01-30T11:07:57.979Z,19.83
2019-01-30T11:11:07.671Z,19.50
2019-01-30T11:14:06.519Z,18.07
2019-01-30T11:17:09.623Z,23.57
2019-01-30T11:20:14.546Z,19.47
2019-01-30T11:23:17.745Z,23.63
2019-01-30T11:26:22.542Z,21.02
2019-01-30T11:29:25.878Z,20.03
2019-01-30T11:32:29.270Z,20.57
2019-01-30T11:35:32.638Z,16.07
2019-01-30T11:38:37.575Z,10.87
2019-01-30T11:41:40.910Z,19.07
2019-01-30T11:44:43.998Z,18.87
2019-01-30T11:47:47.198Z,18.23
2019-01-30T11:55:15.911Z,14.55
2019-01-30T11:58:19.211Z,18.50
2019-01-30T12:01:22.539Z,17.00
2019-01-30T12:04:25.712Z,16.87
2019-01-30T12:07:29.255Z,16.60
2019-01-30T12:10:32.507Z,13.80
2019-01-30T12:13:35.734Z,15.80
2019-01-30T12:16:38.898Z,16.80
2019-01-30T12:19:42.214Z,17.23
2019-01-30T12:22:45.390Z,10.97
2019-01-30T12:25:48.624Z,22.20
2019-01-30T12:28:51.859Z,14.00
2019-01-30T12:31:55.019Z,15.23
2019-01-30T12:34:58.375Z,14.27
2019-01-30T12:38:02.029Z,17.20
2019-01-30T12:41:05.358Z,15.70
2019-01-30T12:44:08.720Z,15.10
2019-01-30T12:47:24.086Z,19.60
2019-01-30T12:50:27.564Z,14.73
2019-01-30T12:53:30.866Z,15.60
2019-01-30T12:56:33.990Z,19.00
2019-01-30T12:59:37.250Z,14.83
2019-01-30T13:02:40.515Z,13.83
2019-01-30T13:05:44.621Z,19.43
2019-01-30T13:08:47.794Z,25.63
2019-01-30T13:11:51.239Z,17.97
2019-01-30T13:14:54.922Z,20.32
2019-01-30T13:17:58.783Z,13.17
2019-01-30T13:21:02.190Z,18.30
2019-01-30T13:24:05.378Z,12.97
2019-01-30T13:27:08.919Z,14.80
2019-01-30T13:30:15.894Z,21.53
2019-01-30T13:33:19.139Z,18.40
2019-01-30T13:36:23.475Z,17.63
2019-01-30T13:39:26.750Z,17.13
2019-01-30T13:42:29.877Z,15.37
2019-01-30T13:45:33.310Z,20.43
2019-01-30T13:48:36.388Z,22.80
2019-01-30T13:51:41.318Z,28.77
2019-01-30T13:54:44.418Z,34.90
2019-01-30T13:57:47.634Z,20.53
2019-01-30T14:00:52.188Z,16.57
2019-01-30T14:03:55.500Z,21.60
2019-01-30T14:06:58.614Z,19.03
2019-01-30T14:10:03.339Z,22.20
2019-01-30T14:13:06.471Z,24.97
2019-01-30T14:16:09.700Z,16.37
2019-01-30T14:19:12.859Z,20.97
2019-01-30T14:22:16.592Z,22.20
2019-01-30T14:25:19.627Z,14.00
2019-01-30T14:28:22.784Z,12.67
2019-01-30T14:31:25.848Z,18.20
2019-01-30T14:34:28.966Z,22.93
2019-01-30T14:37:31.998Z,22.60
2019-01-30T14:40:35.228Z,23.20
2019-01-30T14:43:38.286Z,25.90
2019-01-30T14:46:42.388Z,24.90
2019-01-30T14:49:47.245Z,28.37
2019-01-30T14:52:51.775Z,26.77
2019-01-30T14:55:54.854Z,31.17
2019-01-30T14:58:58.198Z,29.93
2019-01-30T15:02:01.569Z,21.00
2019-01-30T15:05:07.150Z,16.87
2019-01-30T15:08:10.231Z,22.60
2019-01-30T15:11:13.766Z,21.37
2019-01-30T15:14:18.254Z,26.30
2019-01-30T15:17:21.502Z,25.87
2019-01-30T15:20:26.427Z,25.10
2019-01-30T15:23:30.428Z,22.83
2019-01-30T15:26:33.870Z,19.80
2019-01-30T15:29:37.006Z,20.30
2019-01-30T15:32:40.158Z,17.83
2019-01-30T15:35:43.458Z,17.77
2019-01-30T15:38:46.650Z,20.67
2019-01-30T15:41:49.849Z,21.30
2019-01-30T15:44:53.042Z,16.80
2019-01-30T15:47:56.238Z,17.97
2019-01-30T15:50:59.329Z,12.43
2019-01-30T15:54:02.426Z,18.37
2019-01-30T15:57:05.514Z,19.90
2019-01-30T16:00:17.869Z,17.73
2019-01-30T16:03:20.923Z,19.33
2019-01-30T16:06:24.150Z,16.73
2019-01-30T16:09:27.649Z,17.87
2019-01-30T16:12:31.168Z,15.50
2019-01-30T16:15:40.600Z,16.43
2019-01-30T16:18:45.140Z,16.77
2019-01-30T16:21:48.178Z,17.67
2019-01-30T16:24:51.439Z,16.60
2019-01-30T16:27:54.882Z,16.23
2019-01-30T16:31:00.753Z,18.13
2019-01-30T16:34:03.926Z,16.77
2019-01-30T16:37:07.054Z,17.73
2019-01-30T16:40:11.854Z,17.27
2019-01-30T16:43:15.202Z,24.87
2019-01-30T16:46:18.314Z,17.10
2019-01-30T16:49:21.570Z,18.23
2019-01-30T16:52:24.842Z,19.23
2019-01-30T16:55:28.181Z,24.63
2019-01-30T16:58:31.434Z,20.27
2019-01-30T17:01:34.567Z,11.83
2019-01-30T17:04:37.698Z,25.30
2019-01-30T17:07:40.856Z,30.93
2019-01-30T17:10:43.906Z,23.97
2019-01-30T17:13:47.070Z,19.97
2019-01-30T17:16:50.194Z,14.10
2019-01-30T17:19:53.542Z,16.47
2019-01-30T17:22:56.686Z,18.67
2019-01-30T17:25:59.921Z,19.70
2019-01-30T17:29:03.074Z,20.80
2019-01-30T17:32:06.306Z,22.60
2019-01-30T17:35:09.574Z,20.90
2019-01-30T17:38:12.914Z,23.50
2019-01-30T17:41:16.057Z,21.23
2019-01-30T17:44:19.196Z,28.83
2019-01-30T17:47:22.425Z,21.23
2019-01-30T17:50:25.889Z,21.63
2019-01-30T17:53:29.047Z,21.47
2019-01-30T17:56:32.310Z,21.40
2019-01-30T17:59:35.437Z,22.27
2019-01-30T18:02:38.775Z,18.97
2019-01-30T18:05:41.929Z,22.37
2019-01-30T18:08:45.167Z,25.07
2019-01-30T18:11:48.298Z,19.37
2019-01-30T18:14:51.527Z,25.20
2019-01-30T18:17:54.709Z,15.33
2019-01-30T18:20:57.914Z,21.83
2019-01-30T18:24:01.102Z,25.43
2019-01-30T18:27:04.502Z,22.83
2019-01-30T18:30:11.382Z,18.70
2019-01-30T18:33:14.479Z,23.23
2019-01-30T18:36:18.199Z,23.93
2019-01-30T18:39:21.477Z,23.63
2019-01-30T18:42:24.778Z,25.33
2019-01-30T18:45:28.139Z,25.67
2019-01-30T18:48:31.165Z,24.93
2019-01-30T18:51:34.334Z,27.10
2019-01-30T18:54:37.453Z,21.13
2019-01-30T18:57:40.650Z,26.77
2019-01-30T19:00:48.152Z,25.60
2019-01-30T19:03:51.446Z,22.90
2019-01-30T19:06:54.635Z,28.67
2019-01-30T19:09:57.775Z,22.93
2019-01-30T19:13:00.926Z,33.50
2019-01-30T19:16:04.507Z,26.77
2019-01-30T19:19:07.721Z,27.97
2019-01-30T19:22:12.740Z,29.17
2019-01-30T19:25:17.100Z,30.70
2019-01-30T19:28:21.336Z,31.93
2019-01-30T19:31:24.505Z,28.50
2019-01-30T19:34:28.065Z,28.70
2019-01-30T19:37:31.298Z,28.27
2019-01-30T19:40:34.637Z,29.77
2019-01-30T19:43:37.690Z,35.07
2019-01-30T19:46:40.926Z,37.50
2019-01-30T19:49:43.978Z,30.03
2019-01-30T19:52:47.018Z,34.57
2019-01-30T19:55:55.546Z,25.37
2019-01-30T19:59:00.084Z,29.93
2019-01-30T20:02:03.822Z,30.10
2019-01-30T20:05:09.086Z,28.33
2019-01-30T20:08:12.267Z,34.13
2019-01-30T20:11:15.396Z,35.90
2019-01-30T20:14:18.454Z,32.20
2019-01-30T20:17:21.682Z,39.10
2019-01-30T20:20:24.838Z,34.23
2019-01-30T20:23:27.975Z,39.57
2019-01-30T20:26:31.026Z,37.60
2019-01-30T20:29:34.266Z,38.83
2019-01-30T20:32:37.314Z,36.63
2019-01-30T20:35:40.583Z,42.33
2019-01-30T20:38:43.813Z,37.57
2019-01-30T20:41:47.353Z,39.73
2019-01-30T20:44:50.502Z,36.43
2019-01-30T20:47:53.876Z,39.00
2019-01-30T20:50:56.998Z,41.63
2019-01-30T20:54:00.647Z,44.57
2019-01-30T20:57:03.897Z,38.10
2019-01-30T21:00:11.542Z,44.37
2019-01-30T21:03:14.898Z,36.43
2019-01-30T21:06:18.142Z,47.30
2019-01-30T21:09:22.932Z,40.60
2019-01-30T21:12:26.054Z,49.40
2019-01-30T21:15:29.221Z,47.20
2019-01-30T21:18:32.970Z,47.03
2019-01-30T21:21:37.894Z,46.37
2019-01-30T21:24:41.896Z,44.70
2019-01-30T21:32:31.994Z,45.30
2019-01-30T21:35:35.255Z,53.97
2019-01-30T21:38:38.595Z,50.73
2019-01-30T21:41:43.078Z,49.10
2019-01-30T21:44:47.230Z,44.53
2019-01-30T21:47:50.777Z,56.17
2019-01-30T21:50:53.930Z,51.67
2019-01-30T21:53:57.162Z,54.70
2019-01-30T21:57:00.315Z,51.37
2019-01-30T22:00:05.358Z,61.13
2019-01-30T22:03:08.522Z,54.97
2019-01-30T22:06:11.718Z,51.23
2019-01-30T22:09:15.203Z,54.73
2019-01-30T22:12:18.486Z,54.83
2019-01-30T22:15:22.562Z,55.70
2019-01-30T22:18:27.086Z,57.30
2019-01-30T22:21:30.282Z,53.13
2019-01-30T22:24:33.631Z,57.80
2019-01-30T22:27:38.461Z,57.87
2019-01-30T22:30:41.766Z,54.63
2019-01-30T22:33:44.807Z,57.67
2019-01-30T22:36:48.170Z,66.33
2019-01-30T22:39:51.401Z,63.73
2019-01-30T22:42:54.606Z,57.03
2019-01-30T22:45:57.791Z,61.90
2019-01-30T22:49:00.886Z,58.23
2019-01-30T22:52:04.078Z,62.40
2019-01-30T22:55:08.986Z,65.50
2019-01-30T22:58:12.309Z,61.20
2019-01-30T23:01:51.041Z,68.90
2019-01-30T23:05:32.425Z,77.57
2019-01-30T23:09:19.965Z,67.87
2019-01-30T23:12:33.977Z,59.13
2019-01-30T23:15:55.751Z,65.87
2019-01-30T23:19:46.249Z,63.30
2019-01-30T23:23:20.479Z,65.77
2019-01-30T23:26:51.735Z,67.17
2019-01-30T23:30:28.814Z,68.27
2019-01-30T23:33:45.835Z,68.43
2019-01-30T23:37:28.866Z,73.87
2019-01-30T23:40:59.879Z,71.03
2019-01-30T23:44:31.574Z,69.90
2019-01-30T23:48:15.111Z,75.37
2019-01-30T23:51:47.186Z,76.23
2019-01-30T23:55:09.118Z,70.80
2019-01-30T23:58:47.337Z,77.23
